Time;durP1;ratioP1;P1;durP2;ratioP2;P2;SDS_P1;SDS_P2;PMS_P1;PMS_P2;Temp;Humidity;BMP_temperature;BMP_pressure;BME280_temperature;BME280_humidity;BME280_pressure;Samples;Min_cycle;Max_cycle;Signal;HPM_P1;HPM_P2
2022/08/24 00:00:59;;;;;;;32.78;18.42;;;20.00;99.90;;;;;;4831182;29;20188;-74
2022/08/24 00:03:25;;;;;;;36.50;19.55;;;20.80;99.90;;;;;;4804916;29;20125;-73
2022/08/24 00:05:52;;;;;;;32.83;19.65;;;21.70;99.90;;;;;;4804778;29;20038;-74
2022/08/24 00:08:18;;;;;;;33.10;18.98;;;21.70;99.90;;;;;;4834267;29;20528;-73
2022/08/24 00:10:44;;;;;;;39.35;20.02;;;21.40;99.90;;;;;;4828640;29;20125;-73
2022/08/24 00:13:11;;;;;;;27.83;18.90;;;21.50;99.90;;;;;;4815730;29;20129;-73
2022/08/24 00:15:37;;;;;;;33.13;20.30;;;;;;;;;;4803983;29;20243;-74
2022/08/24 00:18:03;;;;;;;37.97;21.58;;;;;;;;;;4804489;29;20043;-73
2022/08/24 00:20:29;;;;;;;35.10;20.63;;;20.60;99.90;;;;;;4804356;29;20038;-73
2022/08/24 00:22:55;;;;;;;33.45;19.85;;;;;;;;;;4789514;29;20053;-73
2022/08/24 00:25:21;;;;;;;36.15;20.48;;;19.80;99.90;;;;;;4774747;29;20038;-70
2022/08/24 00:27:47;;;;;;;44.83;22.20;;;20.70;99.90;;;;;;4804207;29;20511;-70
2022/08/24 00:30:16;;;;;;;41.80;20.77;;;21.40;99.90;;;;;;4832434;29;20046;-70
2022/08/24 00:32:44;;;;;;;33.33;19.88;;;20.10;99.90;;;;;;4789283;29;20051;-70
2022/08/24 00:35:10;;;;;;;29.35;18.40;;;19.30;99.90;;;;;;4803988;29;20454;-70
2022/08/24 00:37:36;;;;;;;33.28;17.85;;;21.00;99.90;;;;;;4805461;29;20066;-69
2022/08/24 00:40:10;;;;;;;38.17;18.38;;;21.50;99.90;;;;;;4831414;29;20109;-69
2022/08/24 00:42:37;;;;;;;32.45;17.60;;;20.30;98.30;;;;;;4803824;29;20065;-70
2022/08/24 00:45:06;;;;;;;30.55;17.48;;;19.70;99.90;;;;;;4802042;29;20097;-70
2022/08/24 00:47:40;;;;;;;32.33;18.42;;;20.90;99.90;;;;;;4827772;29;20442;-70
2022/08/24 00:50:12;;;;;;;33.05;17.65;;;20.90;99.90;;;;;;4801350;29;20065;-70
2022/08/24 00:52:45;;;;;;;40.88;19.48;;;19.60;99.90;;;;;;4803885;29;20051;-69
2022/08/24 00:55:22;;;;;;;32.13;18.92;;;20.50;99.90;;;;;;4801894;29;20112;-70
2022/08/24 00:57:54;;;;;;;32.30;19.95;;;20.40;99.90;;;;;;4806285;29;20070;-70
2022/08/24 01:00:23;;;;;;;;;;;20.40;99.40;;;;;;4832430;29;20058;-69
2022/08/24 01:02:53;;;;;;;32.30;18.38;;;20.10;99.90;;;;;;4803782;29;20374;-70
2022/08/24 01:05:18;;;;;;;30.15;18.95;;;21.10;99.90;;;;;;4833683;29;20130;-70
2022/08/24 01:07:49;;;;;;;32.10;19.15;;;20.10;99.90;;;;;;4803796;29;20134;-70
2022/08/24 01:10:18;;;;;;;30.55;18.40;;;20.60;99.90;;;;;;4805494;29;20110;-69
2022/08/24 01:12:47;;;;;;;35.03;19.13;;;21.10;99.90;;;;;;4821578;29;20039;-70
2022/08/24 01:15:14;;;;;;;39.05;20.05;;;19.50;99.90;;;;;;4833420;29;20038;-70
2022/08/24 01:20:25;;;;;;;33.83;18.88;;;20.90;99.90;;;;;;4803327;29;20051;-70
2022/08/24 01:23:03;;;;;;;28.63;18.52;;;20.00;98.20;;;;;;4824056;29;20043;-70
2022/08/24 01:25:31;;;;;;;35.95;19.45;;;19.90;99.90;;;;;;4803610;29;20102;-69
2022/08/24 01:28:02;;;;;;;33.97;17.80;;;19.50;99.90;;;;;;4789338;29;20118;-69
2022/08/24 01:30:28;;;;;;;31.43;18.57;;;;;;;;;;4829892;29;20047;-69
2022/08/24 01:32:58;;;;;;;34.63;19.48;;;19.80;99.90;;;;;;4807245;29;20446;-69
2022/08/24 01:35:24;;;;;;;33.38;18.48;;;20.00;99.90;;;;;;4826791;29;20039;-70
2022/08/24 01:37:50;;;;;;;36.67;19.35;;;21.00;99.90;;;;;;4825999;29;20122;-70
2022/08/24 01:40:18;;;;;;;35.28;20.27;;;19.50;99.50;;;;;;4806875;29;20062;-69
2022/08/24 01:42:51;;;;;;;33.53;18.10;;;20.00;99.90;;;;;;4806947;29;20114;-70
2022/08/24 01:45:18;;;;;;;37.60;21.05;;;20.60;99.90;;;;;;4806984;29;20047;-70
2022/08/24 01:47:44;;;;;;;34.03;18.77;;;20.90;99.90;;;;;;4812583;29;20034;-70
2022/08/24 01:50:10;;;;;;;34.92;18.70;;;19.80;99.60;;;;;;4791563;29;20046;-69
2022/08/24 01:52:40;;;;;;;37.33;20.20;;;20.80;99.90;;;;;;4791728;29;20522;-69
2022/08/24 01:55:11;;;;;;;40.17;22.25;;;20.50;99.90;;;;;;4828139;29;20055;-69
2022/08/24 01:57:38;;;;;;;38.60;20.80;;;20.50;99.90;;;;;;4805039;29;20057;-69
2022/08/24 02:00:08;;;;;;;33.75;20.52;;;20.20;99.90;;;;;;4806722;29;20046;-69
2022/08/24 02:02:34;;;;;;;32.55;20.20;;;18.70;99.90;;;;;;4806516;29;20141;-69
2022/08/24 02:05:00;;;;;;;37.40;21.40;;;18.60;99.90;;;;;;4791675;29;20050;-69
2022/08/24 02:07:28;;;;;;;36.58;20.33;;;18.60;99.90;;;;;;4806775;29;20054;-69
2022/08/24 02:09:54;;;;;;;40.30;22.90;;;20.00;99.90;;;;;;4806462;29;20094;-69
2022/08/24 02:12:20;;;;;;;32.47;21.00;;;;;;;;;;4806326;29;20484;-69
2022/08/24 02:14:46;;;;;;;37.90;20.23;;;18.70;99.90;;;;;;4806586;29;20093;-69
2022/08/24 02:17:12;;;;;;;40.95;21.70;;;;;;;;;;4806152;29;20042;-70
2022/08/24 02:19:39;;;;;;;34.90;20.52;;;;;;;;;;4806310;29;20077;-69
2022/08/24 02:22:04;;;;;;;36.20;21.75;;;18.30;99.90;;;;;;4791134;29;20047;-69
2022/08/24 02:24:30;;;;;;;39.13;22.35;;;20.60;99.90;;;;;;4806215;29;20065;-69
2022/08/24 02:26:56;;;;;;;39.20;21.88;;;18.80;99.90;;;;;;4835577;29;20130;-70
2022/08/24 02:29:22;;;;;;;37.28;22.92;;;;;;;;;;4830768;29;20133;-70
2022/08/24 02:31:48;;;;;;;36.65;22.33;;;20.30;99.90;;;;;;4791315;29;20078;-70
2022/08/24 02:34:14;;;;;;;38.63;23.73;;;;;;;;;;4805941;29;20070;-70
2022/08/24 02:36:40;;;;;;;36.47;22.58;;;18.40;99.90;;;;;;4805307;29;20051;-69
2022/08/24 02:39:07;;;;;;;40.45;22.75;;;19.00;99.90;;;;;;4835156;29;20046;-70
2022/08/24 02:41:33;;;;;;;37.33;22.75;;;20.50;99.90;;;;;;4805849;29;20050;-69
2022/08/24 02:43:59;;;;;;;41.28;22.27;;;18.20;99.90;;;;;;4820421;29;20051;-69
2022/08/24 02:46:27;;;;;;;40.38;21.38;;;19.40;99.90;;;;;;4805812;29;20046;-69
2022/08/24 02:48:54;;;;;;;35.60;21.85;;;19.30;99.90;;;;;;4805412;29;20158;-70
2022/08/24 02:51:23;;;;;;;32.40;20.27;;;20.50;99.90;;;;;;4806087;29;20111;-70
2022/08/24 02:53:49;;;;;;;42.53;23.20;;;19.90;99.90;;;;;;4805719;29;20400;-73
2022/08/24 02:56:16;;;;;;;44.45;23.50;;;19.30;99.90;;;;;;4830733;29;20046;-73
2022/08/24 02:58:43;;;;;;;42.17;22.02;;;20.30;99.90;;;;;;4790516;29;20059;-73
2022/08/24 03:01:10;;;;;;;44.70;23.65;;;19.80;99.90;;;;;;4817536;29;20496;-73
2022/08/24 03:03:37;;;;;;;38.58;23.38;;;18.30;99.90;;;;;;4824664;29;20047;-73
2022/08/24 03:06:04;;;;;;;39.70;24.30;;;20.30;99.90;;;;;;4830416;29;20050;-73
2022/08/24 03:08:30;;;;;;;51.60;26.92;;;;;;;;;;4811121;29;20065;-73
2022/08/24 03:10:56;;;;;;;48.80;27.33;;;18.00;99.90;;;;;;4805475;29;20154;-73
2022/08/24 03:13:22;;;;;;;45.20;26.95;;;;;;;;;;4805495;29;20051;-73
2022/08/24 03:15:48;;;;;;;45.17;26.23;;;;;;;;;;4790456;29;20035;-74
2022/08/24 03:18:14;;;;;;;53.25;27.60;;;;;;;;;;4805363;29;20057;-73
2022/08/24 03:20:40;;;;;;;48.85;29.13;;;20.20;99.90;;;;;;4790507;29;20039;-73
2022/08/24 03:23:06;;;;;;;49.72;28.05;;;;;;;;;;4804965;29;20108;-73
2022/08/24 03:25:32;;;;;;;43.58;26.48;;;20.20;99.90;;;;;;4790100;29;20046;-73
2022/08/24 03:27:58;;;;;;;51.30;28.20;;;;;;;;;;4804911;29;20049;-73
2022/08/24 03:30:24;;;;;;;38.58;24.83;;;19.10;99.90;;;;;;4803967;29;20042;-73
2022/08/24 03:32:50;;;;;;;48.50;26.80;;;;;;;;;;4805106;29;20039;-73
2022/08/24 03:35:17;;;;;;;50.38;27.40;;;20.40;99.90;;;;;;4805308;29;20047;-73
2022/08/24 03:37:43;;;;;;;45.95;27.83;;;20.30;99.90;;;;;;4805201;29;20043;-73
2022/08/24 03:40:11;;;;;;;53.08;29.83;;;19.40;99.90;;;;;;4805375;29;20050;-73
2022/08/24 03:42:37;;;;;;;58.67;31.70;;;18.90;99.90;;;;;;4805170;29;20050;-73
2022/08/24 03:45:03;;;;;;;60.97;33.13;;;19.50;99.90;;;;;;4790450;29;20092;-73
2022/08/24 03:47:29;;;;;;;59.05;30.33;;;19.90;99.90;;;;;;4804882;29;20106;-73
2022/08/24 03:49:55;;;;;;;56.22;30.58;;;;;;;;;;4819349;29;20126;-74
2022/08/24 03:52:22;;;;;;;50.47;29.08;;;19.60;99.90;;;;;;4804835;29;20043;-73
2022/08/24 03:54:47;;;;;;;54.80;32.25;;;20.50;99.90;;;;;;4789545;29;20042;-73
2022/08/24 03:57:13;;;;;;;63.00;31.80;;;18.70;99.90;;;;;;4806021;29;20046;-73
2022/08/24 03:59:39;;;;;;;60.33;31.98;;;18.20;99.90;;;;;;4804958;29;20062;-73
2022/08/24 04:02:06;;;;;;;64.85;34.30;;;20.00;99.90;;;;;;4814606;29;20046;-73
2022/08/24 04:04:32;;;;;;;60.55;31.85;;;;;;;;;;4823197;29;20488;-73
2022/08/24 04:06:59;;;;;;;60.67;32.88;;;;;;;;;;4802581;29;20039;-73
2022/08/24 04:09:25;;;;;;;58.53;32.75;;;18.20;99.90;;;;;;4804826;29;20050;-73
2022/08/24 04:11:51;;;;;;;62.80;35.53;;;;;;;;;;4805176;29;20115;-73
2022/08/24 04:14:18;;;;;;;63.53;33.95;;;18.10;99.90;;;;;;4805068;29;20081;-74
2022/08/24 04:16:44;;;;;;;56.97;32.38;;;19.70;99.90;;;;;;4804772;29;20051;-73
2022/08/24 04:19:12;;;;;;;63.10;34.38;;;19.10;99.90;;;;;;4805711;29;20054;-73
2022/08/24 04:21:38;;;;;;;58.85;33.70;;;18.90;99.90;;;;;;4834138;29;20061;-73
2022/08/24 04:24:05;;;;;;;59.25;34.45;;;19.20;99.90;;;;;;4788953;29;20055;-73
2022/08/24 04:26:31;;;;;;;61.38;34.85;;;19.50;99.90;;;;;;4802072;29;20506;-74
2022/08/24 04:28:58;;;;;;;64.32;35.83;;;18.10;99.90;;;;;;4806962;29;20161;-73
2022/08/24 04:31:24;;;;;;;68.32;35.85;;;18.10;99.90;;;;;;4809401;29;20046;-74
2022/08/24 04:33:51;;;;;;;73.30;36.63;;;19.90;99.90;;;;;;4806907;29;20487;-74
2022/08/24 04:36:19;;;;;;;60.15;33.80;;;19.10;99.90;;;;;;4801920;29;20469;-74
2022/08/24 04:38:46;;;;;;;69.15;38.53;;;18.00;99.90;;;;;;4804156;29;20053;-74
2022/08/24 04:41:13;;;;;;;63.78;36.30;;;19.30;99.90;;;;;;4804448;29;20105;-74
2022/08/24 04:43:44;;;;;;;65.55;36.58;;;18.30;99.90;;;;;;4833773;29;20043;-73
2022/08/24 04:46:13;;;;;;;62.50;36.00;;;19.10;99.90;;;;;;4799181;29;20054;-74
2022/08/24 04:48:41;;;;;;;65.95;35.03;;;19.20;99.90;;;;;;4811030;29;20138;-74
2022/08/24 04:51:08;;;;;;;68.95;37.00;;;18.20;99.90;;;;;;4828402;29;20057;-74
2022/08/24 04:53:35;;;;;;;70.38;38.75;;;20.20;99.90;;;;;;4827360;29;20070;-73
2022/08/24 04:56:01;;;;;;;74.07;37.63;;;19.10;99.90;;;;;;4816445;29;20436;-74
2022/08/24 04:58:29;;;;;;;72.45;38.53;;;19.40;99.90;;;;;;4797487;29;20066;-74
2022/08/24 05:00:55;;;;;;;82.55;42.50;;;18.10;99.90;;;;;;4816247;29;20061;-74
2022/08/24 05:03:21;;;;;;;74.18;39.13;;;20.20;99.90;;;;;;4812501;29;20548;-73
2022/08/24 05:05:49;;;;;;;78.13;41.35;;;18.80;99.90;;;;;;4803118;29;20078;-73
2022/08/24 05:08:17;;;;;;;78.78;44.22;;;18.20;99.90;;;;;;4805303;29;20046;-73
2022/08/24 05:10:46;;;;;;;74.00;40.95;;;18.90;99.90;;;;;;4788117;29;20492;-74
2022/08/24 05:13:12;;;;;;;72.07;41.97;;;19.60;99.90;;;;;;4834705;29;20039;-74
2022/08/24 05:15:44;;;;;;;71.90;37.30;;;19.50;99.90;;;;;;4789097;29;21291;-74
2022/08/24 05:18:10;;;;;;;82.75;44.15;;;;;;;;;;4801974;29;20146;-74
2022/08/24 05:20:39;;;;;;;79.80;41.22;;;19.60;99.90;;;;;;4803644;29;20452;-74
2022/08/24 05:23:06;;;;;;;74.45;41.58;;;19.50;99.90;;;;;;4788563;29;20129;-73
2022/08/24 05:25:32;;;;;;;66.63;38.70;;;18.20;99.90;;;;;;4803506;29;20049;-73
2022/08/24 05:27:59;;;;;;;70.10;37.10;;;;;;;;;;4804976;29;20043;-73
2022/08/24 05:30:25;;;;;;;75.43;36.47;;;;;;;;;;4803532;29;20055;-73
2022/08/24 05:32:51;;;;;;;65.90;35.92;;;;;;;;;;4803252;29;20066;-73
2022/08/24 05:35:17;;;;;;;65.68;36.58;;;;;;;;;;4803606;29;20067;-73
2022/08/24 05:37:43;;;;;;;62.60;36.15;;;19.50;99.90;;;;;;4803598;29;20045;-73
2022/08/24 05:40:12;;;;;;;72.55;37.70;;;19.30;99.90;;;;;;4805627;29;20043;-74
2022/08/24 05:42:39;;;;;;;80.68;39.58;;;19.30;99.90;;;;;;4803328;29;20176;-73
2022/08/24 05:45:05;;;;;;;56.50;35.08;;;;;;;;;;4829476;29;20175;-73
2022/08/24 05:47:33;;;;;;;80.30;40.75;;;19.30;99.90;;;;;;4803447;29;20051;-74
2022/08/24 05:50:00;;;;;;;73.97;39.58;;;19.60;99.90;;;;;;4833577;29;20163;-73
2022/08/24 05:52:26;;;;;;;71.88;37.65;;;20.40;99.90;;;;;;4803396;29;20058;-73
2022/08/24 05:54:55;;;;;;;80.03;37.30;;;19.60;99.90;;;;;;4831612;29;20590;-73
2022/08/24 05:57:22;;;;;;;63.58;33.10;;;19.20;99.90;;;;;;4827185;29;20051;-73
2022/08/24 05:59:48;;;;;;;67.38;36.10;;;;;;;;;;4828511;29;20055;-73
2022/08/24 06:02:15;;;;;;;66.13;34.13;;;18.70;99.90;;;;;;4803001;29;20057;-74
2022/08/24 06:04:41;;;;;;;56.00;32.83;;;;;;;;;;4803155;29;20458;-73
2022/08/24 06:07:09;;;;;;;66.95;36.92;;;;;;;;;;4801651;29;20090;-73
2022/08/24 06:09:35;;;;;;;69.45;38.33;;;;;;;;;;4800083;29;20146;-73
2022/08/24 06:12:01;;;;;;;69.75;36.85;;;;;;;;;;4800207;29;20042;-73
2022/08/24 06:14:27;;;;;;;74.53;38.78;;;;;;;;;;4787529;29;20058;-74
2022/08/24 06:16:53;;;;;;;67.85;36.35;;;;;;;;;;4805809;29;20038;-73
2022/08/24 06:19:19;;;;;;;69.22;36.92;;;;;;;;;;4805111;29;20071;-73
2022/08/24 06:21:49;;;;;;;72.88;37.88;;;20.50;99.90;;;;;;4806467;29;20129;-73
2022/08/24 06:24:15;;;;;;;76.35;39.00;;;20.80;99.90;;;;;;4806177;29;20054;-73
2022/08/24 06:29:29;;;;;;;72.18;37.90;;;;;;;;;;4806160;29;20424;-74
2022/08/24 06:31:55;;;;;;;73.18;39.28;;;21.10;99.90;;;;;;4806001;29;20480;-73
2022/08/24 06:34:22;;;;;;;67.30;39.90;;;20.30;99.90;;;;;;4833529;29;20053;-73
2022/08/24 06:36:48;;;;;;;68.68;35.95;;;20.30;99.90;;;;;;4826935;29;20142;-73
2022/08/24 06:39:14;;;;;;;81.68;40.40;;;21.10;99.90;;;;;;4805872;29;20081;-74
2022/08/24 06:41:40;;;;;;;75.85;39.70;;;;;;;;;;4832989;29;20081;-74
2022/08/24 06:44:07;;;;;;;74.65;38.72;;;;;;;;;;4805916;29;20051;-74
2022/08/24 06:46:35;;;;;;;72.32;40.58;;;19.40;99.90;;;;;;4806469;29;20054;-74
2022/08/24 06:49:01;;;;;;;72.00;38.83;;;20.30;99.90;;;;;;4806925;29;20047;-73
2022/08/24 06:51:27;;;;;;;69.47;40.22;;;21.40;99.90;;;;;;4810300;29;20106;-74
2022/08/24 06:53:54;;;;;;;71.38;40.97;;;19.50;99.90;;;;;;4807652;29;20057;-74
2022/08/24 06:56:20;;;;;;;73.25;42.05;;;21.40;99.90;;;;;;4827646;29;20051;-73
2022/08/24 06:58:46;;;;;;;72.63;41.50;;;;;;;;;;4837046;29;20092;-74
2022/08/24 07:01:19;;;;;;;78.65;40.88;;;19.60;99.90;;;;;;4806604;29;20496;-74
2022/08/24 07:03:46;;;;;;;73.38;40.17;;;19.60;99.90;;;;;;4806499;29;20495;-74
2022/08/24 07:06:13;;;;;;;91.45;43.97;;;21.20;99.90;;;;;;4789307;29;20055;-74
2022/08/24 07:08:41;;;;;;;78.80;41.60;;;20.90;99.90;;;;;;4835140;29;20046;-74
2022/08/24 07:11:08;;;;;;;86.90;42.38;;;20.70;99.90;;;;;;4826892;29;20046;-74
2022/08/24 07:13:33;;;;;;;88.22;44.53;;;21.80;99.90;;;;;;4835905;29;20074;-74
2022/08/24 07:16:00;;;;;;;92.18;45.85;;;20.70;99.90;;;;;;4805809;29;20436;-74
2022/08/24 07:18:26;;;;;;;75.32;40.25;;;20.80;99.90;;;;;;4805007;29;20488;-74
2022/08/24 07:20:52;;;;;;;83.22;40.63;;;21.40;99.90;;;;;;4805203;29;20086;-74
2022/08/24 07:23:19;;;;;;;71.97;39.20;;;20.00;99.90;;;;;;4806601;29;20074;-74
2022/08/24 07:25:46;;;;;;;71.40;38.33;;;21.60;99.90;;;;;;4804834;29;20081;-74
2022/08/24 07:28:12;;;;;;;75.28;40.13;;;20.00;99.90;;;;;;4832864;29;20410;-75
2022/08/24 07:30:40;;;;;;;74.20;40.10;;;20.20;99.90;;;;;;4830364;29;20050;-74
2022/08/24 07:33:05;;;;;;;72.38;37.47;;;20.50;99.90;;;;;;4806775;29;20091;-74
2022/08/24 07:35:32;;;;;;;63.22;34.47;;;;;;;;;;4790892;29;20442;-74
2022/08/24 07:37:58;;;;;;;72.72;40.05;;;21.50;99.90;;;;;;4805430;29;20053;-74
2022/08/24 07:40:26;;;;;;;65.72;36.42;;;21.70;99.90;;;;;;4831973;29;20072;-74
2022/08/24 07:42:54;;;;;;;66.10;35.50;;;22.40;99.90;;;;;;4808491;29;20042;-74
2022/08/24 07:45:21;;;;;;;54.15;28.25;;;21.40;99.90;;;;;;4804817;29;20054;-74
2022/08/24 07:47:48;;;;;;;51.42;29.77;;;21.60;99.90;;;;;;4806323;29;20047;-74
2022/08/24 07:50:15;;;;;;;50.00;29.63;;;21.60;99.90;;;;;;4827089;29;20042;-74
2022/08/24 07:52:41;;;;;;;48.08;26.25;;;;;;;;;;4803925;29;20484;-74
2022/08/24 07:55:08;;;;;;;52.55;27.23;;;22.10;99.90;;;;;;4803345;29;20389;-74
2022/08/24 07:57:34;;;;;;;51.33;28.27;;;;;;;;;;4828632;29;20039;-74
2022/08/24 08:00:01;;;;;;;50.50;28.45;;;21.20;99.90;;;;;;4804981;29;20070;-73
2022/08/24 08:02:27;;;;;;;47.53;28.45;;;22.90;99.90;;;;;;4789636;29;20107;-74
2022/08/24 08:04:56;;;;;;;55.00;29.77;;;21.30;99.90;;;;;;4804699;29;20043;-73
2022/08/24 08:07:22;;;;;;;52.88;22.30;;;;;;;;;;4804625;29;20465;-74
2022/08/24 08:09:48;;;;;;;45.25;24.17;;;23.00;99.90;;;;;;4788581;29;20461;-73
2022/08/24 08:12:14;;;;;;;42.72;23.10;;;22.10;99.90;;;;;;4831677;29;20051;-73
2022/08/24 08:14:40;;;;;;;45.10;22.83;;;21.70;99.90;;;;;;4830826;29;20042;-74
2022/08/24 08:17:06;;;;;;;43.97;24.10;;;21.40;99.90;;;;;;4783029;29;20048;-74
2022/08/24 08:19:33;;;;;;;42.92;23.63;;;21.50;99.90;;;;;;4814936;29;20042;-74
2022/08/24 08:24:43;;;;;;;43.90;23.40;;;22.30;99.90;;;;;;4817452;29;20058;-74
2022/08/24 08:27:11;;;;;;;45.40;24.65;;;22.60;99.90;;;;;;4810140;29;20488;-74
2022/08/24 08:29:39;;;;;;;37.28;20.60;;;23.10;99.90;;;;;;4806794;29;20535;-74
2022/08/24 08:32:06;;;;;;;36.35;20.30;;;23.40;99.90;;;;;;4807094;29;20051;-74
2022/08/24 08:34:32;;;;;;;37.33;20.08;;;23.00;99.90;;;;;;4793055;29;20070;-74
2022/08/24 08:36:58;;;;;;;44.97;19.80;;;;;;;;;;4805511;29;20065;-73
2022/08/24 08:39:25;;;;;;;37.47;19.60;;;23.70;99.90;;;;;;4806641;29;20043;-72
2022/08/24 08:42:13;;;;;;;41.35;22.48;;;22.70;99.90;;;;;;4794019;29;20049;-73
2022/08/24 08:45:07;;;;;;;43.47;18.90;;;23.60;99.90;;;;;;4810673;29;20049;-74
2022/08/24 08:48:03;;;;;;;40.38;20.77;;;23.10;99.90;;;;;;4810594;29;20042;-73
2022/08/24 08:50:39;;;;;;;40.67;19.95;;;23.50;99.20;;;;;;4811435;29;20066;-74
2022/08/24 08:53:06;;;;;;;39.85;19.40;;;;;;;;;;4808805;29;20046;-73
2022/08/24 08:55:47;;;;;;;53.95;21.88;;;22.10;98.50;;;;;;4813048;29;20062;-73
2022/08/24 08:58:34;;;;;;;34.75;17.73;;;24.20;98.80;;;;;;4813865;29;20078;-73
2022/08/24 09:01:32;;;;;;;39.92;20.13;;;24.10;99.90;;;;;;4808472;29;20042;-72
2022/08/24 09:04:24;;;;;;;31.35;16.40;;;23.60;97.50;;;;;;4779148;29;20055;-73
2022/08/24 09:07:27;;;;;;;39.17;18.45;;;23.00;99.90;;;;;;4803560;29;20504;-72
2022/08/24 09:10:31;;;;;;;37.30;17.83;;;24.30;99.90;;;;;;4805107;29;20050;-74
2022/08/24 09:13:06;;;;;;;31.42;17.67;;;23.90;96.90;;;;;;4807473;29;20504;-74
2022/08/24 09:15:55;;;;;;;32.65;17.60;;;24.30;99.90;;;;;;4807785;29;20074;-74
2022/08/24 09:18:48;;;;;;;38.17;17.40;;;24.30;96.50;;;;;;4803349;29;20051;-74
2022/08/24 09:21:34;;;;;;;33.15;15.30;;;24.70;99.90;;;;;;4807446;29;20043;-74
2022/08/24 09:24:00;;;;;;;36.28;17.20;;;;;;;;;;4825699;29;20065;-73
2022/08/24 09:26:50;;;;;;;40.42;18.17;;;24.50;98.30;;;;;;4796171;29;20034;-73
2022/08/24 09:29:22;;;;;;;32.55;15.55;;;24.70;99.90;;;;;;4810886;29;20523;-73
2022/08/24 09:31:49;;;;;;;35.72;16.60;;;;;;;;;;4811542;29;20038;-73
2022/08/24 09:34:24;;;;;;;31.45;16.73;;;25.10;97.00;;;;;;4826143;29;20062;-73
2022/08/24 09:37:19;;;;;;;29.85;15.18;;;24.80;99.90;;;;;;4815273;29;20046;-73
2022/08/24 09:40:16;;;;;;;28.83;15.00;;;24.30;99.90;;;;;;4808351;29;20503;-73
2022/08/24 09:42:41;;;;;;;29.65;14.50;;;24.90;99.90;;;;;;4804059;29;20149;-73
2022/08/24 09:45:39;;;;;;;29.45;13.75;;;24.20;95.70;;;;;;4805733;29;20556;-73
2022/08/24 09:48:16;;;;;;;32.25;14.63;;;25.20;94.50;;;;;;4792397;29;20439;-74
2022/08/24 09:51:09;;;;;;;24.63;12.80;;;25.20;94.40;;;;;;4810130;29;20059;-74
2022/08/24 09:53:36;;;;;;;21.17;10.45;;;;;;;;;;4812795;29;20522;-73
2022/08/24 09:56:28;;;;;;;25.05;10.15;;;25.30;94.90;;;;;;4814796;29;20054;-74
2022/08/24 09:59:19;;;;;;;18.70;10.48;;;25.80;99.40;;;;;;4830879;29;20059;-74
2022/08/24 10:02:22;;;;;;;23.98;9.25;;;25.50;93.60;;;;;;4815332;29;20050;-74
2022/08/24 10:05:10;;;;;;;19.48;9.45;;;25.80;99.30;;;;;;4828880;29;20541;-73
2022/08/24 10:07:51;;;;;;;21.13;8.52;;;26.10;99.20;;;;;;4829812;29;20055;-73
2022/08/24 10:10:25;;;;;;;18.90;9.13;;;25.80;98.90;;;;;;4801117;29;20038;-73
2022/08/24 10:13:12;;;;;;;14.65;8.70;;;25.40;98.60;;;;;;4810967;29;20134;-74
2022/08/24 10:15:50;;;;;;;14.57;7.15;;;26.00;93.00;;;;;;4793624;29;20050;-74
2022/08/24 10:18:37;;;;;;;16.52;7.20;;;26.30;98.50;;;;;;4805710;29;20047;-74
2022/08/24 10:21:41;;;;;;;16.55;6.03;;;26.00;92.60;;;;;;4806011;29;20047;-73
2022/08/24 10:24:18;;;;;;;18.10;6.35;;;26.60;98.40;;;;;;4804609;29;20495;-74
2022/08/24 10:27:02;;;;;;;27.08;7.93;;;25.70;94.40;;;;;;4835703;29;20496;-73
2022/08/24 10:29:51;;;;;;;12.68;6.43;;;25.90;95.60;;;;;;4805069;29;20148;-74
2022/08/24 10:32:44;;;;;;;13.75;6.15;;;26.40;92.00;;;;;;4805831;29;20042;-74
2022/08/24 10:35:18;;;;;;;10.70;6.45;;;26.30;97.40;;;;;;4824890;29;20039;-74
2022/08/24 10:41:31;;;;;;;14.80;7.82;;;27.00;96.60;;;;;;4804201;29;20472;-74
2022/08/24 10:44:07;;;;;;;13.82;6.00;;;26.70;97.30;;;;;;4805785;29;20050;-74
2022/08/24 10:46:48;;;;;;;13.15;6.40;;;26.90;92.40;;;;;;4806409;29;20057;-74
2022/08/24 10:49:36;;;;;;;9.82;5.43;;;27.20;96.90;;;;;;4790685;29;20079;-74
2022/08/24 10:52:45;;;;;;;8.00;4.55;;;27.30;96.70;;;;;;4806303;29;20042;-73
2022/08/24 10:55:16;;;;;;;13.23;6.18;;;26.60;92.80;;;;;;4805398;29;20126;-74
2022/08/24 10:58:03;;;;;;;7.85;4.50;;;27.50;96.40;;;;;;4810646;29;20157;-74
2022/08/24 11:00:29;;;;;;;7.40;3.72;;;27.50;96.10;;;;;;4824627;29;20444;-73
2022/08/24 11:03:22;;;;;;;12.32;3.88;;;27.40;95.90;;;;;;4810128;29;20054;-74
2022/08/24 11:05:54;;;;;;;5.72;3.50;;;27.10;91.00;;;;;;4826359;29;20054;-74
2022/08/24 11:08:21;;;;;;;;;;;27.30;91.60;;;;;;4825382;29;20480;-74
2022/08/24 11:11:08;;;;;;;13.75;5.10;;;27.60;95.70;;;;;;4825084;29;20346;-74
2022/08/24 11:13:36;;;;;;;5.78;3.63;;;27.50;90.60;;;;;;4824853;29;20385;-73
2022/08/24 11:16:05;;;;;;;10.45;4.90;;;27.80;90.70;;;;;;4824553;29;20054;-74
2022/08/24 11:18:55;;;;;;;15.63;5.40;;;27.60;95.20;;;;;;4824847;29;20065;-74
2022/08/24 11:21:38;;;;;;;10.98;6.70;;;27.60;90.50;;;;;;4824652;29;20050;-74
2022/08/24 11:24:24;;;;;;;15.35;7.03;;;27.90;92.60;;;;;;4809506;29;20133;-74
2022/08/24 11:27:05;;;;;;;17.83;8.27;;;28.20;94.90;;;;;;4824478;29;20407;-74
2022/08/24 11:29:50;;;;;;;17.42;6.78;;;27.30;94.70;;;;;;4824511;29;20085;-74
2022/08/24 11:32:43;;;;;;;14.98;5.85;;;28.30;94.90;;;;;;4839661;29;20061;-74
2022/08/24 11:35:23;;;;;;;12.18;6.35;;;28.20;90.80;;;;;;4813704;29;20043;-74
2022/08/24 11:37:55;;;;;;;12.38;6.55;;;27.80;94.40;;;;;;4813213;29;20392;-75
2022/08/24 11:40:27;;;;;;;11.45;5.30;;;27.70;89.10;;;;;;4799072;29;20047;-73
2022/08/24 11:43:19;;;;;;;32.63;6.47;;;28.10;86.80;;;;;;4814534;29;20511;-74
2022/08/24 11:46:13;;;;;;;13.25;7.00;;;27.70;93.90;;;;;;4811710;29;20057;-74
2022/08/24 11:49:03;;;;;;;16.50;6.53;;;28.20;94.00;;;;;;4830067;29;20057;-74
2022/08/24 11:51:58;;;;;;;20.77;7.72;;;27.90;93.90;;;;;;4812599;29;20043;-74
2022/08/24 11:54:26;;;;;;;16.27;8.32;;;28.30;94.00;;;;;;4800851;29;20042;-74
2022/08/24 11:57:14;;;;;;;12.80;7.03;;;28.00;93.80;;;;;;4831407;29;20053;-74
2022/08/24 11:59:54;;;;;;;14.32;7.68;;;28.50;93.90;;;;;;4815912;29;20082;-73
2022/08/24 12:02:34;;;;;;;18.13;6.93;;;28.50;93.70;;;;;;4815376;29;20034;-74
2022/08/24 12:05:05;;;;;;;18.05;7.05;;;28.70;93.50;;;;;;4818260;29;20043;-73
2022/08/24 12:07:31;;;;;;;18.92;7.53;;;28.70;93.20;;;;;;4812572;29;20374;-75
2022/08/24 12:10:30;;;;;;;15.38;7.20;;;28.50;93.00;;;;;;4814128;29;20049;-74
2022/08/24 12:13:25;;;;;;;25.88;6.97;;;28.50;84.60;;;;;;4812218;29;20074;-74
2022/08/24 12:15:58;;;;;;;16.38;5.90;;;28.60;86.70;;;;;;4814932;29;20061;-74
2022/08/24 12:18:42;;;;;;;15.45;5.38;;;28.60;93.10;;;;;;4830533;29;20146;-74
2022/08/24 12:21:11;;;;;;;10.43;4.22;;;28.50;92.90;;;;;;4826252;29;20070;-74
2022/08/24 12:23:43;;;;;;;9.35;4.22;;;28.90;92.70;;;;;;4814060;29;20625;-74
2022/08/24 12:26:31;;;;;;;9.20;4.10;;;29.10;90.60;;;;;;4810918;29;20100;-74
2022/08/24 12:29:04;;;;;;;9.65;3.53;;;28.80;92.00;;;;;;4800923;29;20061;-74
2022/08/24 12:31:41;;;;;;;10.25;4.20;;;29.00;91.90;;;;;;4811271;29;20038;-74
2022/08/24 12:34:30;;;;;;;7.57;3.40;;;29.10;84.80;;;;;;4800351;29;20081;-74
2022/08/24 12:37:08;;;;;;;6.05;2.72;;;28.70;91.70;;;;;;4779772;29;20086;-74
2022/08/24 12:40:11;;;;;;;8.15;3.15;;;29.10;91.50;;;;;;4809153;29;20491;-74
2022/08/24 12:42:53;;;;;;;7.50;2.80;;;28.90;91.00;;;;;;4825919;29;20046;-74
2022/08/24 12:45:21;;;;;;;6.60;1.77;;;29.40;81.20;;;;;;4796323;29;20072;-74
2022/08/24 12:48:06;;;;;;;3.17;1.83;;;29.40;80.20;;;;;;4813035;29;20043;-74
2022/08/24 12:50:50;;;;;;;4.47;2.70;;;29.60;78.30;;;;;;4813620;29;20134;-77
2022/08/24 12:54:13;;;;;;;4.32;2.63;;;29.70;90.60;;;;;;4799814;29;20445;-76
2022/08/24 12:57:15;;;;;;;18.02;3.10;;;29.80;90.70;;;;;;4751047;30;20433;-75
2022/08/24 12:59:41;;;;;;;;;;;29.40;80.60;;;;;;4760623;30;20091;-75
2022/08/24 13:02:26;;;;;;;7.35;2.53;;;29.60;90.50;;;;;;4801518;29;20421;-75
2022/08/24 13:04:52;;;;;;;8.57;2.28;;;30.00;90.40;;;;;;4814204;29;20125;-75
2022/08/24 13:07:18;;;;;;;5.10;2.17;;;29.30;90.10;;;;;;4797693;29;20046;-75
2022/08/24 13:09:55;;;;;;;11.80;2.00;;;30.00;88.80;;;;;;4813731;29;20107;-75
2022/08/24 13:12:42;;;;;;;4.22;2.00;;;29.40;90.00;;;;;;4793248;29;20047;-75
2022/08/24 13:15:28;;;;;;;3.08;1.90;;;29.90;89.80;;;;;;4820695;29;20050;-73
2022/08/24 13:17:59;;;;;;;5.32;2.40;;;29.80;78.70;;;;;;4814693;29;20050;-77
2022/08/24 13:20:33;;;;;;;4.95;1.92;;;29.90;76.00;;;;;;4813180;29;20050;-75
2022/08/24 13:22:59;;;;;;;3.45;1.80;;;;;;;;;;4803587;29;20043;-75